Time;durP1;ratioP1;P1;durP2;ratioP2;P2;SDS_P1;SDS_P2;PMS_P1;PMS_P2;Temp;Humidity;BMP_temperature;BMP_pressure;BME280_temperature;BME280_humidity;BME280_pressure;Samples;Min_cycle;Max_cycle;Signal;HPM_P1;HPM_P2
2023/05/29 00:00:17;;;;;;;2.80;0.82;;;;;;;14.02;66.85;101844.28;5060712;28;20029;-65
2023/05/29 00:02:44;;;;;;;4.13;1.30;;;;;;;13.95;67.19;101847.97;5060332;28;20049;-65
2023/05/29 00:05:11;;;;;;;4.57;1.17;;;;;;;13.79;67.25;101839.09;5075807;28;20028;-65
2023/05/29 00:07:37;;;;;;;3.00;0.95;;;;;;;13.84;66.88;101852.88;5026804;28;20409;-66
2023/05/29 00:10:04;;;;;;;7.35;1.13;;;;;;;13.76;66.92;101846.75;5060630;28;20047;-66
2023/05/29 00:12:29;;;;;;;5.00;1.52;;;;;;;13.76;66.62;101860.28;5077858;28;20016;-66
2023/05/29 00:14:55;;;;;;;4.70;1.10;;;;;;;13.65;66.75;101858.09;5044525;28;20039;-66
2023/05/29 00:17:21;;;;;;;6.13;1.45;;;;;;;13.53;67.30;101860.47;5078134;28;20024;-65
2023/05/29 00:19:46;;;;;;;5.78;1.33;;;;;;;13.40;67.78;101864.72;5076178;28;20032;-65
2023/05/29 00:22:12;;;;;;;6.28;1.00;;;;;;;13.33;67.89;101854.88;5077007;28;20052;-66
2023/05/29 00:24:38;;;;;;;6.25;1.10;;;;;;;13.30;68.24;101861.47;5079343;28;20063;-65
2023/05/29 00:27:03;;;;;;;4.72;1.13;;;;;;;13.21;68.22;101861.75;5042339;28;20036;-65
2023/05/29 00:29:29;;;;;;;2.70;0.90;;;;;;;13.08;68.80;101867.88;5056847;28;20041;-66
2023/05/29 00:31:56;;;;;;;4.60;0.93;;;;;;;12.95;69.12;101865.84;5074373;28;20115;-68
2023/05/29 00:34:23;;;;;;;4.68;1.08;;;;;;;12.88;69.52;101859.50;5060172;28;20025;-66
2023/05/29 00:36:48;;;;;;;7.65;1.63;;;;;;;12.85;69.79;101863.44;5059697;28;20024;-67
2023/05/29 00:39:14;;;;;;;3.03;1.00;;;;;;;12.77;69.88;101877.03;5041719;28;20034;-65
2023/05/29 00:41:39;;;;;;;1.73;0.80;;;;;;;12.69;70.20;101882.53;5076694;28;20037;-66
2023/05/29 00:44:06;;;;;;;4.78;1.10;;;;;;;12.70;70.28;101881.50;5055001;28;20036;-66
2023/05/29 00:46:32;;;;;;;4.45;1.10;;;;;;;12.64;70.26;101877.66;5057737;28;20498;-66
2023/05/29 00:49:01;;;;;;;3.00;1.02;;;;;;;12.52;70.48;101868.38;5060605;28;20028;-66
2023/05/29 00:51:29;;;;;;;2.78;1.00;;;;;;;12.53;70.50;101885.41;5043417;28;20033;-66
2023/05/29 00:53:54;;;;;;;9.20;1.20;;;;;;;12.42;70.45;101867.81;5060152;28;20036;-65
2023/05/29 00:56:21;;;;;;;4.68;1.05;;;;;;;12.48;70.33;101890.53;5076402;28;20647;-65
2023/05/29 00:58:49;;;;;;;2.20;0.80;;;;;;;12.38;70.52;101882.69;5077143;28;20066;-65
2023/05/29 01:01:17;;;;;;;2.10;0.73;;;;;;;12.16;70.56;101861.00;5077899;28;20135;-65
2023/05/29 01:03:43;;;;;;;2.15;0.85;;;;;;;12.21;70.73;101879.31;5078226;28;20039;-65
2023/05/29 01:06:10;;;;;;;2.67;0.73;;;;;;;12.04;70.64;101872.41;5082046;28;20028;-65
2023/05/29 01:08:36;;;;;;;3.20;1.00;;;;;;;12.12;70.93;101889.38;5084274;28;20024;-65
2023/05/29 01:11:13;;;;;;;4.18;0.75;;;;;;;12.04;71.22;101883.19;5082076;28;20043;-66
2023/05/29 01:13:41;;;;;;;2.03;0.70;;;;;;;12.07;71.50;101888.22;5081081;28;20028;-65
2023/05/29 01:16:34;;;;;;;2.97;1.00;;;;;;;12.02;71.48;101891.47;5063858;28;20207;-65
2023/05/29 01:19:36;;;;;;;1.25;0.60;;;;;;;12.10;71.12;101885.16;5082598;28;20032;-66
2023/05/29 01:23:09;;;;;;;7.55;1.17;;;;;;;12.13;70.33;101890.19;5082371;28;20031;-66
2023/05/29 01:26:03;;;;;;;2.15;0.70;;;;;;;12.11;70.06;101892.22;4995536;28;20181;-65
2023/05/29 01:28:34;;;;;;;1.90;0.93;;;;;;;12.14;69.87;101897.25;5003133;28;20046;-66
2023/05/29 01:31:02;;;;;;;2.38;0.80;;;;;;;11.99;69.51;101863.00;5074695;28;20054;-66
2023/05/29 01:33:28;;;;;;;1.67;0.70;;;;;;;12.15;68.88;101888.13;5081574;28;20029;-65
2023/05/29 01:35:53;;;;;;;1.58;0.77;;;;;;;12.13;68.43;101882.09;5063277;28;20074;-65
2023/05/29 01:38:18;;;;;;;2.55;0.80;;;;;;;12.24;67.62;101895.16;5081712;28;20115;-65
2023/05/29 01:40:45;;;;;;;1.80;0.63;;;;;;;12.02;67.50;101869.03;5061130;28;20032;-65
2023/05/29 01:43:12;;;;;;;2.30;0.60;;;;;;;12.04;67.22;101875.94;5079470;28;20028;-65
2023/05/29 01:45:37;;;;;;;4.38;0.82;;;;;;;12.33;66.48;101893.22;5045479;28;20032;-65
2023/05/29 01:48:04;;;;;;;1.42;0.60;;;;;;;12.34;65.80;101892.19;5063196;28;20471;-65
2023/05/29 01:50:30;;;;;;;2.13;0.52;;;;;;;12.30;66.14;101891.72;5080928;28;20025;-65
2023/05/29 01:52:56;;;;;;;1.50;0.70;;;;;;;12.28;65.69;101898.31;5046524;28;20025;-65
2023/05/29 01:55:21;;;;;;;3.00;0.95;;;;;;;12.20;65.83;101907.34;5063368;28;20062;-66
2023/05/29 01:57:48;;;;;;;1.60;0.50;;;;;;;12.17;65.69;101903.13;5047036;28;20036;-65
2023/05/29 02:00:16;;;;;;;1.52;0.65;;;;;;;12.11;65.29;101890.38;5080778;28;20040;-65
2023/05/29 02:02:42;;;;;;;4.63;0.70;;;;;;;12.26;65.21;101906.59;5080372;28;20040;-65
2023/05/29 02:05:08;;;;;;;2.00;0.70;;;;;;;12.23;65.14;101897.00;5076232;28;20031;-65
2023/05/29 02:07:38;;;;;;;1.13;0.80;;;;;;;12.27;64.65;101899.34;5076627;28;20032;-65
2023/05/29 02:10:06;;;;;;;3.55;0.77;;;;;;;12.24;64.64;101889.75;5058799;28;20039;-65
2023/05/29 02:12:32;;;;;;;1.38;0.60;;;;;;;12.13;64.03;101879.41;5062349;28;20027;-66
2023/05/29 02:14:57;;;;;;;3.03;0.70;;;;;;;12.19;64.49;101895.72;5081755;28;20029;-68
2023/05/29 02:17:24;;;;;;;2.47;0.70;;;;;;;12.19;64.66;101901.09;5082227;28;20032;-66
2023/05/29 02:19:50;;;;;;;1.83;0.80;;;;;;;12.22;64.57;101903.44;5065395;28;20095;-65
2023/05/29 02:22:16;;;;;;;2.03;0.70;;;;;;;12.21;64.69;101904.44;5065522;28;20498;-65
2023/05/29 02:24:42;;;;;;;1.27;0.70;;;;;;;12.18;64.81;101907.50;5083285;28;20025;-66
2023/05/29 02:27:07;;;;;;;4.03;0.68;;;;;;;12.16;64.90;101909.56;5064462;28;20372;-65
2023/05/29 02:29:33;;;;;;;2.53;0.93;;;;;;;12.18;64.57;101907.50;5065346;28;20062;-69
2023/05/29 02:31:58;;;;;;;1.40;0.68;;;;;;;12.26;64.25;101919.25;5065495;28;20025;-66
2023/05/29 02:34:24;;;;;;;1.67;0.80;;;;;;;12.32;63.87;101918.53;5048170;28;20039;-65
2023/05/29 02:36:54;;;;;;;2.80;0.80;;;;;;;12.31;63.75;101920.38;5082229;28;20047;-65
2023/05/29 02:39:20;;;;;;;5.68;0.93;;;;;;;12.33;63.61;101923.75;5065265;28;20032;-66
2023/05/29 02:41:46;;;;;;;2.15;0.70;;;;;;;12.46;63.38;101918.53;5082096;28;20414;-65
2023/05/29 02:44:11;;;;;;;7.97;0.82;;;;;;;12.73;62.49;101920.81;5080798;28;20032;-65
2023/05/29 02:46:37;;;;;;;1.08;0.60;;;;;;;13.12;61.33;101913.22;5065434;28;20408;-65
2023/05/29 02:49:02;;;;;;;1.80;0.60;;;;;;;13.52;60.11;101912.88;5066094;28;20036;-66
2023/05/29 02:51:28;;;;;;;3.00;0.63;;;;;;;13.79;58.71;101912.13;5064546;28;20021;-65
2023/05/29 02:53:53;;;;;;;1.40;0.68;;;;;;;14.06;58.27;101907.78;5064561;28;20051;-67
2023/05/29 02:56:23;;;;;;;1.52;0.60;;;;;;;14.43;57.46;101908.47;5063827;28;20029;-65
2023/05/29 02:58:49;;;;;;;2.25;0.68;;;;;;;14.87;56.16;101922.78;5079446;28;20029;-66
2023/05/29 03:01:15;;;;;;;3.13;0.70;;;;;;;15.24;55.48;101921.47;5076703;28;20086;-67
2023/05/29 03:03:40;;;;;;;2.00;0.70;;;;;;;15.58;54.63;101927.84;5076847;28;20139;-65
2023/05/29 03:06:06;;;;;;;2.83;0.65;;;;;;;15.81;53.59;101920.19;5077138;28;20078;-65
2023/05/29 03:08:31;;;;;;;1.40;0.60;;;;;;;16.16;52.94;101915.44;5060741;28;20028;-66
2023/05/29 03:10:57;;;;;;;3.17;0.80;;;;;;;16.64;51.56;101920.59;5079314;28;20029;-65
2023/05/29 03:13:22;;;;;;;3.90;0.95;;;;;;;17.03;50.46;101918.84;5079076;28;20451;-66
2023/05/29 03:15:47;;;;;;;1.25;0.70;;;;;;;17.31;49.63;101913.06;5078925;28;20102;-66
2023/05/29 03:18:13;;;;;;;2.30;0.95;;;;;;;17.63;48.26;101894.06;5060791;28;20119;-65
2023/05/29 03:20:38;;;;;;;1.40;0.80;;;;;;;18.27;46.99;101908.47;5044729;28;20039;-66
2023/05/29 03:23:04;;;;;;;3.25;0.70;;;;;;;18.66;45.95;101906.41;5060446;28;20112;-65
2023/05/29 03:25:29;;;;;;;2.65;0.80;;;;;;;18.81;45.06;101916.97;5060520;28;20038;-66
2023/05/29 03:27:55;;;;;;;1.77;0.70;;;;;;;19.11;44.24;101927.97;5078533;28;20071;-66
2023/05/29 03:30:20;;;;;;;1.65;0.77;;;;;;;19.30;43.28;101929.59;5062213;28;20510;-66
2023/05/29 03:32:46;;;;;;;3.30;0.85;;;;;;;19.16;42.87;101928.94;5076865;28;20028;-66
2023/05/29 03:35:12;;;;;;;1.77;0.88;;;;;;;19.58;42.33;101928.19;5079089;28;20027;-66
2023/05/29 03:37:37;;;;;;;2.03;0.80;;;;;;;19.73;42.40;101927.78;5061995;28;20043;-66
2023/05/29 03:40:04;;;;;;;1.15;0.70;;;;;;;19.95;42.24;101927.00;5079642;28;20028;-66
2023/05/29 03:42:31;;;;;;;1.58;0.75;;;;;;;20.26;41.70;101926.94;5080196;28;20028;-66
2023/05/29 03:44:56;;;;;;;1.58;0.77;;;;;;;20.18;41.73;101931.69;5080168;28;20028;-66
2023/05/29 03:47:22;;;;;;;8.00;0.80;;;;;;;20.02;42.34;101932.38;5045328;28;20079;-66
2023/05/29 03:49:48;;;;;;;3.30;0.88;;;;;;;20.00;42.46;101934.50;5062108;28;20043;-67
2023/05/29 03:52:13;;;;;;;2.90;0.80;;;;;;;19.89;42.79;101930.66;5044474;28;20028;-66
2023/05/29 03:54:38;;;;;;;2.35;1.00;;;;;;;20.16;42.11;101908.38;5080119;28;20056;-66
2023/05/29 03:57:05;;;;;;;2.22;0.80;;;;;;;20.21;41.08;101918.63;5045656;28;20222;-66
2023/05/29 03:59:30;;;;;;;2.75;0.82;;;;;;;20.57;39.68;101926.63;5079535;28;20369;-65
2023/05/29 04:01:56;;;;;;;2.28;0.60;;;;;;;21.04;38.14;101934.75;5076540;28;20078;-68
2023/05/29 04:04:21;;;;;;;2.78;0.90;;;;;;;21.16;37.14;101929.28;5075516;28;20043;-66
2023/05/29 04:06:46;;;;;;;1.67;0.77;;;;;;;21.66;36.14;101936.00;5088831;28;20028;-66
2023/05/29 04:09:12;;;;;;;1.45;0.63;;;;;;;21.84;35.47;101941.25;5090500;28;20027;-65
2023/05/29 04:11:39;;;;;;;1.85;0.63;;;;;;;22.24;34.57;101943.06;5071386;28;20099;-67
2023/05/29 04:14:04;;;;;;;2.83;0.80;;;;;;;22.12;34.26;101942.28;5071216;28;20027;-66
2023/05/29 04:16:30;;;;;;;2.13;0.70;;;;;;;22.23;34.21;101952.38;5081399;28;20039;-66
2023/05/29 04:18:55;;;;;;;2.30;0.80;;;;;;;22.26;33.96;101952.69;5099744;28;20451;-66
2023/05/29 04:21:21;;;;;;;1.30;0.65;;;;;;;22.09;33.96;101945.53;5098634;28;20490;-66
2023/05/29 04:23:46;;;;;;;1.88;0.70;;;;;;;21.97;33.89;101935.47;5096136;28;20028;-66
2023/05/29 04:26:12;;;;;;;1.52;0.80;;;;;;;21.84;33.76;101944.00;5099198;28;20538;-65
2023/05/29 04:28:39;;;;;;;1.58;0.90;;;;;;;21.22;34.70;101943.88;5081974;28;20031;-66
2023/05/29 04:31:05;;;;;;;1.88;0.90;;;;;;;20.61;35.00;101952.41;5100236;28;20024;-66
2023/05/29 04:33:32;;;;;;;2.35;0.70;;;;;;;20.75;35.22;101957.63;5099693;28;20020;-71
2023/05/29 04:36:00;;;;;;;1.73;0.90;;;;;;;20.80;35.00;101965.97;5097294;28;20040;-66
2023/05/29 04:38:26;;;;;;;2.90;1.10;;;;;;;20.60;35.79;101966.34;5098101;28;20530;-65
2023/05/29 04:40:57;;;;;;;1.13;0.63;;;;;;;20.94;35.39;101972.03;5083678;28;20043;-66
2023/05/29 04:43:22;;;;;;;2.85;1.08;;;;;;;21.08;35.51;101971.50;5084390;28;20056;-66
2023/05/29 04:45:48;;;;;;;6.13;1.00;;;;;;;20.87;35.51;101966.69;5084370;28;20039;-66
2023/05/29 04:48:13;;;;;;;2.28;1.05;;;;;;;20.70;35.92;101980.25;5084168;28;20038;-66
2023/05/29 04:50:39;;;;;;;2.05;0.98;;;;;;;20.70;36.27;101987.63;5084011;28;20043;-66
2023/05/29 04:53:04;;;;;;;2.45;0.88;;;;;;;20.58;36.17;101976.66;5102489;28;20432;-66
2023/05/29 04:55:30;;;;;;;2.60;0.95;;;;;;;20.06;36.85;101985.47;5084138;28;20395;-66
2023/05/29 04:57:55;;;;;;;3.03;0.95;;;;;;;19.58;37.92;101985.50;5083997;28;20049;-65
2023/05/29 05:00:21;;;;;;;1.85;0.90;;;;;;;19.72;37.46;101976.09;5096915;28;20028;-65
2023/05/29 05:02:47;;;;;;;1.63;0.80;;;;;;;19.30;37.93;101999.72;5061227;28;20217;-66
2023/05/29 05:05:12;;;;;;;3.00;1.10;;;;;;;19.25;37.99;101987.59;5102127;28;20035;-66
2023/05/29 05:07:38;;;;;;;3.45;0.80;;;;;;;19.31;37.84;101987.75;5084739;28;20024;-66
2023/05/29 05:10:04;;;;;;;4.25;1.10;;;;;;;19.05;38.43;101997.06;5102037;28;20114;-66
2023/05/29 05:12:30;;;;;;;5.15;1.05;;;;;;;18.83;39.00;101996.66;5097453;28;20085;-66
2023/05/29 05:14:55;;;;;;;2.03;0.90;;;;;;;18.18;39.93;101997.81;5104387;28;20024;-66
2023/05/29 05:17:21;;;;;;;2.45;0.95;;;;;;;17.83;41.00;101992.78;5102183;28;20036;-67
2023/05/29 05:19:49;;;;;;;3.50;0.98;;;;;;;18.13;40.44;101986.75;5067195;28;20032;-66
2023/05/29 05:22:14;;;;;;;2.88;0.90;;;;;;;17.81;41.15;101989.47;5083975;28;20122;-65
2023/05/29 05:24:40;;;;;;;2.55;0.80;;;;;;;17.60;41.52;101993.31;5084624;28;20063;-67
2023/05/29 05:27:06;;;;;;;2.72;0.90;;;;;;;18.06;41.60;101992.22;5102664;28;20032;-67
2023/05/29 05:29:31;;;;;;;2.53;0.85;;;;;;;17.95;41.79;101994.84;5104524;28;20491;-68
2023/05/29 05:31:57;;;;;;;3.15;0.80;;;;;;;17.69;42.55;101993.06;5087117;28;20020;-65
2023/05/29 05:34:22;;;;;;;2.40;1.05;;;;;;;17.65;42.79;101984.50;5086444;28;20078;-64
2023/05/29 05:36:49;;;;;;;2.88;1.08;;;;;;;17.29;43.33;101983.19;5083604;28;20058;-66
2023/05/29 05:39:14;;;;;;;5.00;1.00;;;;;;;16.60;44.59;101970.97;5081569;28;20378;-67
2023/05/29 05:41:40;;;;;;;2.10;0.80;;;;;;;16.40;45.26;101981.84;5078621;28;20035;-66
2023/05/29 05:44:06;;;;;;;2.10;0.70;;;;;;;16.43;45.30;101991.47;5061494;28;20119;-66
2023/05/29 05:46:32;;;;;;;1.27;0.60;;;;;;;16.31;45.76;101991.25;5078416;28;20513;-72
2023/05/29 05:48:57;;;;;;;1.33;0.70;;;;;;;16.58;45.77;102000.22;5061555;28;20119;-66
2023/05/29 05:51:24;;;;;;;3.08;1.00;;;;;;;16.78;45.43;101992.09;5078300;28;20484;-67
2023/05/29 05:53:50;;;;;;;2.10;0.80;;;;;;;17.02;44.91;102000.63;5078661;28;20146;-66
2023/05/29 05:56:16;;;;;;;2.05;0.60;;;;;;;16.89;44.77;102004.22;5062514;28;20027;-66
2023/05/29 05:58:42;;;;;;;4.55;0.80;;;;;;;16.86;44.89;102004.66;5046625;28;20044;-66
2023/05/29 06:01:08;;;;;;;3.13;0.88;;;;;;;16.74;45.22;102018.00;5076845;28;20055;-66
2023/05/29 06:03:34;;;;;;;1.20;0.60;;;;;;;16.77;44.84;102012.19;5066499;28;20079;-66
2023/05/29 06:05:59;;;;;;;2.05;0.85;;;;;;;16.60;45.18;102005.47;5061143;28;20033;-66
2023/05/29 06:08:25;;;;;;;2.90;0.75;;;;;;;16.97;44.89;102012.16;5061273;28;20039;-66
2023/05/29 06:10:50;;;;;;;2.20;0.73;;;;;;;17.12;44.58;102015.47;5091517;28;20039;-66
2023/05/29 06:13:16;;;;;;;1.65;0.80;;;;;;;17.07;44.50;102011.72;5101087;28;20103;-66
2023/05/29 06:15:43;;;;;;;1.45;0.80;;;;;;;17.27;43.95;101993.44;5089974;28;20044;-67
2023/05/29 06:18:08;;;;;;;1.17;0.50;;;;;;;17.54;43.89;102009.66;5101767;28;20032;-66
2023/05/29 06:20:34;;;;;;;1.15;0.73;;;;;;;17.13;43.77;102008.16;5100130;28;20028;-66
2023/05/29 06:22:59;;;;;;;3.40;0.90;;;;;;;17.14;43.43;102013.34;5081132;28;20027;-66
2023/05/29 06:25:32;;;;;;;1.05;0.65;;;;;;;17.49;43.06;102013.03;5097958;28;20040;-66
2023/05/29 06:28:02;;;;;;;1.88;0.70;;;;;;;17.65;42.97;102019.88;5085956;28;20039;-66
2023/05/29 06:30:28;;;;;;;1.65;0.70;;;;;;;17.75;42.52;102020.25;5082519;28;20036;-67
2023/05/29 06:32:54;;;;;;;1.10;0.65;;;;;;;17.64;42.54;102018.19;5060271;28;20031;-66
2023/05/29 06:35:20;;;;;;;2.53;0.70;;;;;;;17.66;42.14;102013.38;5078923;28;20059;-66
2023/05/29 06:37:46;;;;;;;2.97;0.88;;;;;;;17.97;42.40;102012.59;5060463;28;20104;-66
2023/05/29 06:40:13;;;;;;;1.83;0.57;;;;;;;18.29;41.98;102016.16;5059111;28;20020;-66
2023/05/29 06:42:38;;;;;;;3.47;0.98;;;;;;;17.95;42.17;102008.47;5059852;28;20016;-67
2023/05/29 06:45:04;;;;;;;3.55;0.90;;;;;;;17.93;42.49;102021.44;5034500;28;20035;-71
2023/05/29 06:47:30;;;;;;;3.30;0.70;;;;;;;17.96;42.37;102034.63;5075756;28;20411;-66
2023/05/29 06:49:55;;;;;;;1.60;0.80;;;;;;;18.03;42.22;102027.25;5041008;28;20036;-66
2023/05/29 06:52:20;;;;;;;2.70;0.80;;;;;;;18.05;42.93;102030.59;5059382;28;20505;-67
2023/05/29 06:54:46;;;;;;;3.17;0.70;;;;;;;17.94;43.21;102042.16;5059293;28;20104;-66
2023/05/29 06:57:11;;;;;;;2.88;0.77;;;;;;;18.08;41.95;102038.34;5043741;28;20032;-66
2023/05/29 06:59:37;;;;;;;4.18;0.88;;;;;;;18.29;41.83;102037.97;5060552;28;20445;-66
2023/05/29 07:02:03;;;;;;;4.07;1.00;;;;;;;18.23;43.03;102044.28;5060349;28;20052;-66
2023/05/29 07:04:28;;;;;;;3.10;0.73;;;;;;;18.31;43.40;102052.22;5097310;28;20039;-65
2023/05/29 07:06:54;;;;;;;3.03;0.80;;;;;;;18.30;43.75;102049.69;5080123;28;20036;-66
2023/05/29 07:09:19;;;;;;;2.15;0.90;;;;;;;18.36;43.43;102058.91;5098407;28;20024;-66
2023/05/29 07:11:45;;;;;;;3.33;0.90;;;;;;;18.07;44.01;102053.81;5079854;28;20111;-66
2023/05/29 07:14:10;;;;;;;2.85;0.82;;;;;;;18.23;44.21;102048.91;5079962;28;20039;-66
2023/05/29 07:16:35;;;;;;;2.75;0.90;;;;;;;17.94;43.89;102039.44;5063208;28;20036;-66
2023/05/29 07:19:01;;;;;;;2.60;1.15;;;;;;;17.91;44.72;102053.50;5097193;28;20431;-66
2023/05/29 07:21:26;;;;;;;2.00;0.77;;;;;;;18.16;44.62;102046.22;5096169;28;20028;-66
2023/05/29 07:23:52;;;;;;;2.67;0.77;;;;;;;17.89;45.92;102064.63;5097563;28;20028;-67
2023/05/29 07:26:17;;;;;;;2.92;0.70;;;;;;;17.74;45.87;102058.56;5098870;28;20459;-66
2023/05/29 07:28:43;;;;;;;2.83;0.93;;;;;;;17.94;45.98;102061.22;5079461;28;20044;-66
2023/05/29 07:31:08;;;;;;;3.88;0.70;;;;;;;17.82;45.36;102055.66;5076046;28;20028;-66
2023/05/29 07:33:34;;;;;;;2.35;0.80;;;;;;;17.66;46.73;102059.66;5075010;28;20041;-66
2023/05/29 07:36:00;;;;;;;1.25;0.70;;;;;;;17.80;45.96;102063.19;5059007;28;20073;-66
2023/05/29 07:38:25;;;;;;;2.50;0.70;;;;;;;17.94;45.10;102058.50;5076787;28;20032;-66
2023/05/29 07:40:51;;;;;;;2.28;0.70;;;;;;;17.99;45.02;102056.81;5082464;28;20031;-66
2023/05/29 07:43:16;;;;;;;1.65;0.68;;;;;;;18.08;44.49;102065.56;5093210;28;20040;-67
2023/05/29 07:45:41;;;;;;;2.33;0.73;;;;;;;17.94;44.05;102055.78;5101047;28;20471;-66
2023/05/29 07:48:07;;;;;;;3.30;0.80;;;;;;;17.98;43.44;102057.00;5063236;28;20036;-66
2023/05/29 07:50:32;;;;;;;1.67;0.60;;;;;;;18.11;42.03;102053.38;5097916;28;20028;-66
2023/05/29 07:53:00;;;;;;;1.50;0.80;;;;;;;18.17;41.44;102075.13;5097898;28;20058;-66
2023/05/29 07:55:25;;;;;;;1.77;0.80;;;;;;;18.15;42.51;102065.53;5079796;28;20521;-66
2023/05/29 07:57:51;;;;;;;3.63;0.70;;;;;;;18.06;42.87;102078.56;5097369;28;20023;-67
2023/05/29 08:00:16;;;;;;;7.00;1.20;;;;;;;18.09;43.44;102075.41;5096661;28;20176;-66
2023/05/29 08:02:42;;;;;;;1.70;0.68;;;;;;;18.32;43.17;102069.41;5063932;28;20055;-66
2023/05/29 08:05:08;;;;;;;1.65;0.60;;;;;;;18.11;43.40;102067.84;5059572;28;20062;-66
2023/05/29 08:07:35;;;;;;;2.92;0.82;;;;;;;17.96;43.31;102070.03;5076420;28;20025;-67
2023/05/29 08:10:00;;;;;;;4.20;0.88;;;;;;;17.83;44.24;102063.59;5057896;28;20099;-66
2023/05/29 08:12:26;;;;;;;2.25;0.75;;;;;;;17.65;45.07;102068.03;5057852;28;20504;-66
2023/05/29 08:14:51;;;;;;;2.13;0.80;;;;;;;17.32;46.57;102066.28;5075412;28;20032;-66
2023/05/29 08:17:16;;;;;;;3.17;0.70;;;;;;;17.31;47.09;102054.53;5041627;28;20055;-66
2023/05/29 08:19:42;;;;;;;3.33;0.80;;;;;;;17.26;48.87;102048.91;5058344;28;20560;-66
2023/05/29 08:22:07;;;;;;;1.33;0.85;;;;;;;16.97;50.89;102066.53;5076513;28;20505;-66
2023/05/29 08:24:33;;;;;;;2.30;0.70;;;;;;;16.76;51.17;102064.88;5076082;28;20456;-66
2023/05/29 08:26:58;;;;;;;1.73;0.63;;;;;;;16.90;51.54;102061.09;5057958;28;20139;-66
2023/05/29 08:29:24;;;;;;;1.92;0.77;;;;;;;16.73;52.70;102062.53;5057198;28;20032;-66
2023/05/29 08:31:49;;;;;;;4.05;0.80;;;;;;;16.80;53.15;102052.53;5074170;28;20475;-66
2023/05/29 08:34:15;;;;;;;3.25;0.65;;;;;;;16.65;54.40;102073.59;5056589;28;20024;-66
2023/05/29 08:36:41;;;;;;;1.55;0.60;;;;;;;16.71;53.36;102069.22;5057510;28;20116;-67
2023/05/29 08:39:07;;;;;;;1.40;0.70;;;;;;;16.49;52.58;102039.56;5076645;28;20123;-66
2023/05/29 08:41:47;;;;;;;5.75;1.10;;;;;;;16.66;51.86;102067.16;5057649;28;20400;-65
2023/05/29 08:44:21;;;;;;;1.70;0.90;;;;;;;16.40;55.12;102067.97;5077144;28;20092;-66
2023/05/29 08:46:47;;;;;;;1.13;0.65;;;;;;;16.49;57.16;102076.72;5058828;28;20028;-66
2023/05/29 08:49:16;;;;;;;1.95;0.70;;;;;;;16.66;56.49;102075.31;5076095;28;20048;-67
2023/05/29 08:51:46;;;;;;;1.38;0.70;;;;;;;16.59;55.71;102088.06;5076104;28;20021;-67
2023/05/29 08:54:14;;;;;;;3.17;0.90;;;;;;;16.39;55.86;102080.72;5076349;28;20031;-68
2023/05/29 08:56:40;;;;;;;1.00;0.47;;;;;;;16.44;57.06;102082.78;5041028;28;20033;-66
2023/05/29 08:59:07;;;;;;;1.77;0.50;;;;;;;16.60;54.80;102085.13;5065591;28;20086;-66
2023/05/29 09:01:35;;;;;;;2.10;1.00;;;;;;;16.35;55.93;102078.59;5046049;28;20056;-66
2023/05/29 09:04:01;;;;;;;2.35;0.85;;;;;;;16.41;57.00;102081.31;5077067;28;20016;-66
2023/05/29 09:06:26;;;;;;;2.92;0.80;;;;;;;16.36;56.33;102086.56;5058079;28;20082;-66
2023/05/29 09:08:52;;;;;;;2.22;0.70;;;;;;;16.31;55.88;102077.34;5074988;28;20033;-66
2023/05/29 09:11:19;;;;;;;2.53;0.80;;;;;;;16.33;55.86;102091.56;5056863;28;20419;-66
2023/05/29 09:13:46;;;;;;;1.70;0.70;;;;;;;16.45;56.27;102090.72;5040604;28;20140;-66
2023/05/29 09:16:11;;;;;;;2.25;0.90;;;;;;;16.18;56.11;102097.97;5075075;28;20479;-67
2023/05/29 09:18:37;;;;;;;3.15;0.80;;;;;;;16.02;56.94;102102.94;5055293;28;20043;-67
2023/05/29 09:21:09;;;;;;;3.55;1.00;;;;;;;16.22;56.42;102103.84;5056255;28;20043;-67
2023/05/29 09:23:35;;;;;;;2.70;0.80;;;;;;;15.83;56.08;102055.72;5057440;28;20512;-67
2023/05/29 09:26:02;;;;;;;1.95;0.85;;;;;;;16.18;56.71;102100.69;5024170;28;20028;-67
2023/05/29 09:28:31;;;;;;;1.15;0.70;;;;;;;16.12;55.83;102081.69;5076271;28;20146;-66
2023/05/29 09:30:56;;;;;;;2.75;0.70;;;;;;;16.20;56.06;102085.06;5060635;28;20029;-67
2023/05/29 09:33:22;;;;;;;3.17;0.73;;;;;;;16.33;55.65;102097.81;5060892;28;20119;-67
2023/05/29 09:35:50;;;;;;;1.45;0.70;;;;;;;16.18;55.91;102099.88;5061706;28;20541;-67
2023/05/29 09:38:20;;;;;;;2.35;0.60;;;;;;;16.00;56.15;102084.16;5061400;28;20051;-67
2023/05/29 09:40:46;;;;;;;2.63;0.80;;;;;;;16.18;56.74;102097.16;5064358;28;20055;-66
2023/05/29 09:43:16;;;;;;;1.92;0.70;;;;;;;16.18;55.72;102110.72;5075439;28;20107;-67
2023/05/29 09:45:47;;;;;;;1.48;0.60;;;;;;;16.28;54.29;102100.31;5100132;28;20027;-67
2023/05/29 09:48:18;;;;;;;2.63;0.70;;;;;;;16.27;54.94;102100.53;5083012;28;20055;-66
2023/05/29 09:50:50;;;;;;;2.58;0.68;;;;;;;16.25;54.76;102108.03;5081914;28;20138;-67
2023/05/29 09:53:19;;;;;;;2.75;0.60;;;;;;;16.47;54.97;102098.69;5102090;28;20028;-67
2023/05/29 09:55:47;;;;;;;1.88;0.70;;;;;;;16.70;53.88;102111.88;5100851;28;20028;-66
2023/05/29 09:58:14;;;;;;;1.63;0.50;;;;;;;16.57;53.59;102090.13;5083223;28;20032;-66
2023/05/29 10:00:42;;;;;;;1.58;0.60;;;;;;;16.60;52.58;102109.56;5103557;28;20111;-67
2023/05/29 10:03:07;;;;;;;1.85;0.70;;;;;;;16.74;52.94;102098.72;5085161;28;20146;-68
2023/05/29 10:05:32;;;;;;;1.52;0.60;;;;;;;16.46;53.78;102091.59;5084714;28;20672;-70
2023/05/29 10:08:02;;;;;;;4.00;0.77;;;;;;;16.29;52.42;102085.72;5084957;28;20103;-67
2023/05/29 10:10:28;;;;;;;2.25;0.90;;;;;;;16.32;52.67;102093.41;5102366;28;20235;-67
2023/05/29 10:12:54;;;;;;;1.52;0.70;;;;;;;16.29;54.50;102085.72;5064255;28;20482;-66
2023/05/29 10:15:23;;;;;;;0.90;0.75;;;;;;;16.43;54.09;102087.41;5081247;28;20055;-67
2023/05/29 10:17:59;;;;;;;1.55;0.68;;;;;;;16.70;49.32;102094.75;5099398;28;20024;-65
2023/05/29 10:20:28;;;;;;;0.85;0.60;;;;;;;16.93;49.50;102097.91;5098103;28;20028;-66
2023/05/29 10:22:56;;;;;;;1.20;0.65;;;;;;;16.84;49.97;102088.28;5098032;28;20024;-67
2023/05/29 10:25:23;;;;;;;1.38;0.77;;;;;;;16.62;49.60;102101.19;5100470;28;20069;-65
2023/05/29 10:27:49;;;;;;;3.00;0.82;;;;;;;16.57;48.95;102092.84;5101096;28;20065;-65
2023/05/29 10:30:41;;;;;;;1.95;0.60;;;;;;;16.69;50.16;102096.63;5098227;28;20441;-68
2023/05/29 10:33:12;;;;;;;1.13;0.50;;;;;;;16.76;49.57;102089.34;5071719;28;20375;-65
2023/05/29 10:36:12;;;;;;;1.55;0.65;;;;;;;17.17;48.40;102090.16;5082103;28;20479;-66
2023/05/29 10:38:41;;;;;;;0.85;0.60;;;;;;;16.78;50.89;102084.50;5066633;28;20043;-67
2023/05/29 10:41:28;;;;;;;2.58;0.77;;;;;;;16.78;49.57;102094.56;5078595;28;20020;-68
2023/05/29 10:43:55;;;;;;;3.95;0.68;;;;;;;16.83;50.22;102098.31;5080098;28;20042;-66
2023/05/29 10:46:20;;;;;;;1.23;0.75;;;;;;;16.82;50.17;102095.81;5098426;28;20232;-66
2023/05/29 10:48:49;;;;;;;1.38;0.70;;;;;;;16.82;51.38;102096.66;5098888;28;20035;-66
2023/05/29 10:51:26;;;;;;;1.63;0.73;;;;;;;16.90;53.34;102093.72;5100763;28;20103;-66
2023/05/29 10:53:51;;;;;;;2.25;0.60;;;;;;;16.58;52.22;102097.22;5099496;28;20081;-66
2023/05/29 10:56:23;;;;;;;1.60;0.60;;;;;;;16.55;54.10;102103.06;5081590;28;20214;-65
2023/05/29 10:58:57;;;;;;;2.25;0.75;;;;;;;16.91;52.41;102091.84;5099702;28;20023;-66
2023/05/29 11:01:25;;;;;;;1.95;0.80;;;;;;;17.06;51.60;102097.06;5078391;28;20052;-67
2023/05/29 11:03:52;;;;;;;2.22;0.70;;;;;;;16.78;52.14;102083.69;5075828;28;20059;-67
2023/05/29 11:06:23;;;;;;;1.35;0.63;;;;;;;16.39;52.46;102085.28;5080234;28;20060;-68
2023/05/29 11:08:56;;;;;;;1.58;0.70;;;;;;;16.26;53.27;102102.41;5077598;28;20039;-66
2023/05/29 11:11:29;;;;;;;2.60;0.73;;;;;;;16.24;53.70;102098.22;5060727;28;20028;-66
2023/05/29 11:13:56;;;;;;;2.67;0.75;;;;;;;16.43;54.07;102089.28;5077738;28;20032;-66
2023/05/29 11:16:25;;;;;;;3.00;0.95;;;;;;;16.32;53.83;102085.25;5081978;28;20029;-67
2023/05/29 11:18:52;;;;;;;1.45;0.70;;;;;;;16.35;55.09;102090.28;5080188;28;20035;-66
2023/05/29 11:21:46;;;;;;;4.53;0.70;;;;;;;16.62;55.00;102088.47;5080923;28;20029;-66
2023/05/29 11:24:26;;;;;;;1.33;0.70;;;;;;;16.62;55.62;102098.47;5075831;28;20575;-66